sensor_id;sensor_type;location;lat;lon;timestamp;pressure;altitude;pressure_sealevel;temperature;humidity
45789;BME280;31492;54.856;26.318;2022-09-01T02:13:37;1001.8;;;9.9;100
45789;BME280;31492;54.856;26.318;2022-09-01T02:18:41;1001.1;;;9.8;100
45789;BME280;31492;54.856;26.318;2022-09-01T02:23:37;1001.1;;;9.6;100
45789;BME280;31492;54.856;26.318;2022-09-01T02:28:38;1001.2;;;9.6;100
45789;BME280;31492;54.856;26.318;2022-09-01T02:33:37;1001.2;;;9.5;100
45789;BME280;31492;54.856;26.318;2022-09-01T02:38:35;1001.2;;;9.3;100
45789;BME280;31492;54.856;26.318;2022-09-01T02:43:34;1001.2;;;9.2;100
45789;BME280;31492;54.856;26.318;2022-09-01T02:48:36;1001.3;;;9.2;100
45789;BME280;31492;54.856;26.318;2022-09-01T02:53:37;1001.3;;;9.2;100
45789;BME280;31492;54.856;26.318;2022-09-01T02:58:41;1001.3;;;9;100
45789;BME280;31492;54.856;26.318;2022-09-01T03:03:33;1001.4;;;9;100
45789;BME280;31492;54.856;26.318;2022-09-01T03:08:39;1001.4;;;9;100
45789;BME280;31492;54.856;26.318;2022-09-01T03:13:41;1001.4;;;8.9;100
45789;BME280;31492;54.856;26.318;2022-09-01T03:18:37;1001.4;;;8.9;100
45789;BME280;31492;54.856;26.318;2022-09-01T03:23:39;1001.5;;;8.8;100
45789;BME280;31492;54.856;26.318;2022-09-01T03:28:37;1001.5;;;8.8;100
45789;BME280;31492;54.856;26.318;2022-09-01T03:33:37;1001.5;;;8.7;100
45789;BME280;31492;54.856;26.318;2022-09-01T03:38:33;1001.6;;;8.7;100
45789;BME280;31492;54.856;26.318;2022-09-01T03:43:37;1001.6;;;8.7;100
45789;BME280;31492;54.856;26.318;2022-09-01T03:48:37;1001.7;;;8.7;100
45789;BME280;31492;54.856;26.318;2022-09-01T03:53:36;1001.7;;;8.7;100
45789;BME280;31492;54.856;26.318;2022-09-01T03:58:35;1001.7;;;8.6;100
45789;BME280;31492;54.856;26.318;2022-09-01T04:03:35;1001.7;;;8.7;100
45789;BME280;31492;54.856;26.318;2022-09-01T04:08:27;1001.6;;;8.6;100
45789;BME280;31492;54.856;26.318;2022-09-01T04:13:37;1001.6;;;8.6;100
45789;BME280;31492;54.856;26.318;2022-09-01T04:18:37;1001.6;;;8.7;100
45789;BME280;31492;54.856;26.318;2022-09-01T04:23:39;1001.6;;;8.7;100
45789;BME280;31492;54.856;26.318;2022-09-01T04:28:42;1001.7;;;8.7;100
45789;BME280;31492;54.856;26.318;2022-09-01T04:33:41;1001.7;;;8.7;100
45789;BME280;31492;54.856;26.318;2022-09-01T04:38:37;1001.7;;;8.7;100
45789;BME280;31492;54.856;26.318;2022-09-01T04:43:41;1001.6;;;8.8;100
45789;BME280;31492;54.856;26.318;2022-09-01T04:48:41;1001.7;;;9;100
45789;BME280;31492;54.856;26.318;2022-09-01T04:53:37;1001.6;;;9.1;100
45789;BME280;31492;54.856;26.318;2022-09-01T04:58:37;1001.6;;;9.3;100
45789;BME280;31492;54.856;26.318;2022-09-01T05:03:39;1001.5;;;9.6;100
45789;BME280;31492;54.856;26.318;2022-09-01T05:08:37;1001.6;;;9.8;100
45789;BME280;31492;54.856;26.318;2022-09-01T05:13:37;1001.6;;;10;100
45789;BME280;31492;54.856;26.318;2022-09-01T05:18:35;1001.6;;;10.3;100
45789;BME280;31492;54.856;26.318;2022-09-01T05:23:41;1001.6;;;10.6;100
45789;BME280;31492;54.856;26.318;2022-09-01T05:28:35;1001.6;;;10.9;100
45789;BME280;31492;54.856;26.318;2022-09-01T05:33:33;1001.6;;;11;100
45789;BME280;31492;54.856;26.318;2022-09-01T05:38:39;1001.6;;;10.9;100
45789;BME280;31492;54.856;26.318;2022-09-01T05:43:29;1001.6;;;10.9;100
45789;BME280;31492;54.856;26.318;2022-09-01T05:48:27;1001.6;;;10.8;100
45789;BME280;31492;54.856;26.318;2022-09-01T05:53:39;1001.6;;;10.7;100
45789;BME280;31492;54.856;26.318;2022-09-01T05:58:37;1001.7;;;10.6;100
45789;BME280;31492;54.856;26.318;2022-09-01T06:03:37;1001.7;;;10.6;100
45789;BME280;31492;54.856;26.318;2022-09-01T06:08:37;1001.6;;;10.5;100
45789;BME280;31492;54.856;26.318;2022-09-01T06:13:39;1001.6;;;10.6;100
45789;BME280;31492;54.856;26.318;2022-09-01T06:18:37;1001.7;;;10.9;100
45789;BME280;31492;54.856;26.318;2022-09-01T06:23:35;1001.7;;;11.2;100
45789;BME280;31492;54.856;26.318;2022-09-01T06:28:35;1001.7;;;11.5;100
45789;BME280;31492;54.856;26.318;2022-09-01T06:33:33;1001.7;;;11.7;100
45789;BME280;31492;54.856;26.318;2022-09-01T06:38:41;1001.6;;;11.9;100
45789;BME280;31492;54.856;26.318;2022-09-01T06:43:35;1001.7;;;12.2;100
45789;BME280;31492;54.856;26.318;2022-09-01T06:48:23;1001.7;;;12.7;100
45789;BME280;31492;54.856;26.318;2022-09-01T06:53:41;1001.6;;;13.4;100
45789;BME280;31492;54.856;26.318;2022-09-01T06:58:39;1001.5;;;13.5;100
45789;BME280;31492;54.856;26.318;2022-09-01T07:03:37;1001.5;;;14.3;100
45789;BME280;31492;54.856;26.318;2022-09-01T07:08:37;1001.5;;;14.4;100
45789;BME280;31492;54.856;26.318;2022-09-01T07:13:41;1001.6;;;14.1;100
45789;BME280;31492;54.856;26.318;2022-09-01T07:18:43;1001.6;;;13.8;100
45789;BME280;31492;54.856;26.318;2022-09-01T07:23:37;1001.6;;;13.7;100
45789;BME280;31492;54.856;26.318;2022-09-01T07:28:35;1001.6;;;13.9;100
45789;BME280;31492;54.856;26.318;2022-09-01T07:33:37;1001.7;;;14.2;100
45789;BME280;31492;54.856;26.318;2022-09-01T07:38:37;1001.6;;;15.2;100
45789;BME280;31492;54.856;26.318;2022-09-01T07:43:39;1001.7;;;16;100
45789;BME280;31492;54.856;26.318;2022-09-01T07:48:39;1001.6;;;15.7;100
45789;BME280;31492;54.856;26.318;2022-09-01T07:53:43;1001.6;;;16;100
45789;BME280;31492;54.856;26.318;2022-09-01T07:58:39;1001.6;;;16.6;96.6
45789;BME280;31492;54.856;26.318;2022-09-01T08:03:41;1001.5;;;17.3;87.7
45789;BME280;31492;54.856;26.318;2022-09-01T08:08:37;1001.5;;;18.5;80
45789;BME280;31492;54.856;26.318;2022-09-01T08:13:43;1001.5;;;18.5;70.1
45789;BME280;31492;54.856;26.318;2022-09-01T08:18:41;1001.5;;;18.3;63.2
45789;BME280;31492;54.856;26.318;2022-09-01T08:23:39;1001.5;;;17.6;64.4
45789;BME280;31492;54.856;26.318;2022-09-01T08:28:39;1001.6;;;16.6;86.9
45789;BME280;31492;54.856;26.318;2022-09-01T08:33:36;1001.5;;;18;79.5
45789;BME280;31492;54.856;26.318;2022-09-01T08:38:43;1001.4;;;20.2;54.4
45789;BME280;31492;54.856;26.318;2022-09-01T08:43:43;1001.4;;;20;50
45789;BME280;31492;54.856;26.318;2022-09-01T08:48:40;1001.6;;;18.5;59.6
45789;BME280;31492;54.856;26.318;2022-09-01T08:53:44;1001.6;;;17.4;71.6
45789;BME280;31492;54.856;26.318;2022-09-01T08:58:37;1001.6;;;17.3;73
45789;BME280;31492;54.856;26.318;2022-09-01T09:03:42;1001.5;;;19.5;57.7
45789;BME280;31492;54.856;26.318;2022-09-01T09:09:03;1001.3;;;21.7;47.3
45789;BME280;31492;54.856;26.318;2022-09-01T09:18:56;1001.4;;;21.6;44.4
45789;BME280;31492;54.856;26.318;2022-09-01T09:23:40;1001.5;;;20;45.5
45789;BME280;31492;54.856;26.318;2022-09-01T09:28:41;1001.6;;;18.9;48.7
45789;BME280;31492;54.856;26.318;2022-09-01T09:33:32;1001.5;;;19.9;48.7
45789;BME280;31492;54.856;26.318;2022-09-01T09:38:39;1001.4;;;22.2;43.5
45789;BME280;31492;54.856;26.318;2022-09-01T09:43:42;1001.3;;;23.4;38.7
45789;BME280;31492;54.856;26.318;2022-09-01T09:48:41;1001.2;;;22.8;36.8
45789;BME280;31492;54.856;26.318;2022-09-01T09:53:43;1001.5;;;21.1;42.4
45789;BME280;31492;54.856;26.318;2022-09-01T09:58:39;1001.6;;;20;44.4
45789;BME280;31492;54.856;26.318;2022-09-01T10:03:39;1001.5;;;20.2;44.5
45789;BME280;31492;54.856;26.318;2022-09-01T10:08:42;1001.4;;;22;42.2
45789;BME280;31492;54.856;26.318;2022-09-01T10:13:39;1001.3;;;23.9;37.8
45789;BME280;31492;54.856;26.318;2022-09-01T10:18:39;1001.3;;;24.5;35.7
45789;BME280;31492;54.856;26.318;2022-09-01T10:23:37;1001.4;;;23.3;38.5
45789;BME280;31492;54.856;26.318;2022-09-01T10:28:39;1001.4;;;23.5;36.5
45789;BME280;31492;54.856;26.318;2022-09-01T10:33:41;1001.4;;;24.7;36
45789;BME280;31492;54.856;26.318;2022-09-01T10:38:40;1001.3;;;25.9;33.5
45789;BME280;31492;54.856;26.318;2022-09-01T10:43:44;1001.4;;;24.8;31.5
45789;BME280;31492;54.856;26.318;2022-09-01T10:48:43;1001.4;;;24.5;33.2
45789;BME280;31492;54.856;26.318;2022-09-01T10:53:42;1001.4;;;25.2;35.1
45789;BME280;31492;54.856;26.318;2022-09-01T10:59:47;1001.5;;;24.7;34
45789;BME280;31492;54.856;26.318;2022-09-01T11:03:34;1001.6;;;22.7;35.8
45789;BME280;31492;54.856;26.318;2022-09-01T11:08:44;1001.7;;;21.2;39.8
45789;BME280;31492;54.856;26.318;2022-09-01T11:13:44;1001.8;;;20.2;42.6
45789;BME280;31492;54.856;26.318;2022-09-01T11:18:41;1001.8;;;20.6;44.1
45789;BME280;31492;54.856;26.318;2022-09-01T11:23:39;1001.6;;;22.2;39.9
45789;BME280;31492;54.856;26.318;2022-09-01T11:28:37;1001.6;;;22.9;37.2
45789;BME280;31492;54.856;26.318;2022-09-01T11:34:09;1001.5;;;22.7;36.4
45789;BME280;31492;54.856;26.318;2022-09-01T11:38:42;1001.5;;;23.2;37.2
45789;BME280;31492;54.856;26.318;2022-09-01T11:43:37;1001.6;;;22.7;35.8
45789;BME280;31492;54.856;26.318;2022-09-01T11:48:45;1001.6;;;21.8;38.8
45789;BME280;31492;54.856;26.318;2022-09-01T11:53:39;1001.6;;;21.6;40.3
45789;BME280;31492;54.856;26.318;2022-09-01T11:58:43;1001.5;;;22.6;37.9
45789;BME280;31492;54.856;26.318;2022-09-01T12:03:41;1001.5;;;23.5;35.3
45789;BME280;31492;54.856;26.318;2022-09-01T12:08:40;1001.5;;;24.4;35.3
45789;BME280;31492;54.856;26.318;2022-09-01T12:13:53;1001.5;;;24.6;32
45789;BME280;31492;54.856;26.318;2022-09-01T12:18:44;1001.6;;;23.4;34.2
45789;BME280;31492;54.856;26.318;2022-09-01T12:23:46;1001.6;;;23.6;35.1
45789;BME280;31492;54.856;26.318;2022-09-01T12:28:39;1001.6;;;23.9;35.1
45789;BME280;31492;54.856;26.318;2022-09-01T12:33:40;1001.5;;;23.8;35.2
45789;BME280;31492;54.856;26.318;2022-09-01T12:38:43;1001.5;;;23.6;34.9
45789;BME280;31492;54.856;26.318;2022-09-01T12:43:41;1001.6;;;21.8;36.7
45789;BME280;31492;54.856;26.318;2022-09-01T12:48:23;1001.6;;;21.3;40
45789;BME280;31492;54.856;26.318;2022-09-01T12:53:38;1001.6;;;21.6;39.9
45789;BME280;31492;54.856;26.318;2022-09-01T12:58:46;1001.6;;;22.3;37.3
45789;BME280;31492;54.856;26.318;2022-09-01T13:03:39;1001.5;;;22.6;37.9
45789;BME280;31492;54.856;26.318;2022-09-01T13:08:43;1001.4;;;22.5;36.3
45789;BME280;31492;54.856;26.318;2022-09-01T13:13:35;1001.4;;;22.4;38.4
45789;BME280;31492;54.856;26.318;2022-09-01T13:18:39;1001.4;;;22.3;37.8
45789;BME280;31492;54.856;26.318;2022-09-01T13:23:45;1001.4;;;22;37.8
45789;BME280;31492;54.856;26.318;2022-09-01T13:28:43;1001.4;;;21.1;39.5
45789;BME280;31492;54.856;26.318;2022-09-01T13:33:39;1001.6;;;20.5;43.1
45789;BME280;31492;54.856;26.318;2022-09-01T13:38:45;1001.6;;;20;41.9
45789;BME280;31492;54.856;26.318;2022-09-01T13:43:40;1001.6;;;19.6;44.6
45789;BME280;31492;54.856;26.318;2022-09-01T13:48:43;1001.6;;;19.1;43.4
45789;BME280;31492;54.856;26.318;2022-09-01T13:53:43;1001.7;;;18.8;47.2
45789;BME280;31492;54.856;26.318;2022-09-01T13:58:39;1001.8;;;18.2;48.6
45789;BME280;31492;54.856;26.318;2022-09-01T14:03:37;1001.8;;;18.1;49.6
45789;BME280;31492;54.856;26.318;2022-09-01T14:08:29;1001.8;;;17.8;53.3
45789;BME280;31492;54.856;26.318;2022-09-01T14:13:43;1001.8;;;17.4;59.2
45789;BME280;31492;54.856;26.318;2022-09-01T14:18:41;1001.8;;;17.3;67.6
45789;BME280;31492;54.856;26.318;2022-09-01T14:23:42;1001.8;;;17.1;65
45789;BME280;31492;54.856;26.318;2022-09-01T14:28:42;1001.9;;;16.6;71.9
45789;BME280;31492;54.856;26.318;2022-09-01T14:33:29;1001.9;;;16.5;71.6
45789;BME280;31492;54.856;26.318;2022-09-01T14:38:41;1001.8;;;16.4;83.7
45789;BME280;31492;54.856;26.318;2022-09-01T14:43:43;1001.8;;;16.3;87
45789;BME280;31492;54.856;26.318;2022-09-01T14:48:43;1001.9;;;16.1;93.6
45789;BME280;31492;54.856;26.318;2022-09-01T14:53:43;1001.9;;;15.9;97.1
45789;BME280;31492;54.856;26.318;2022-09-01T14:58:41;1001.9;;;15.6;99.7
45789;BME280;31492;54.856;26.318;2022-09-01T15:03:37;1002;;;15.4;98.1
45789;BME280;31492;54.856;26.318;2022-09-01T15:08:41;1002;;;15.1;97.2
45789;BME280;31492;54.856;26.318;2022-09-01T15:13:41;1002;;;15;100
45789;BME280;31492;54.856;26.318;2022-09-01T15:18:43;1002;;;14.8;100
45789;BME280;31492;54.856;26.318;2022-09-01T15:23:39;1002;;;14.9;100
45789;BME280;31492;54.856;26.318;2022-09-01T15:28:39;1002.1;;;14.8;100
45789;BME280;31492;54.856;26.318;2022-09-01T15:33:35;1002.1;;;14.7;100
45789;BME280;31492;54.856;26.318;2022-09-01T15:38:39;1002.1;;;14.5;100
45789;BME280;31492;54.856;26.318;2022-09-01T15:43:39;1002.1;;;14.4;100
45789;BME280;31492;54.856;26.318;2022-09-01T15:48:39;1002.1;;;14;100
45789;BME280;31492;54.856;26.318;2022-09-01T15:53:43;1002.1;;;13.9;100
45789;BME280;31492;54.856;26.318;2022-09-01T15:58:43;1002.2;;;13.8;100
45789;BME280;31492;54.856;26.318;2022-09-01T16:03:37;1002.1;;;13.7;100
45789;BME280;31492;54.856;26.318;2022-09-01T16:08:27;1002.1;;;13.6;100
45789;BME280;31492;54.856;26.318;2022-09-01T16:13:38;1002.1;;;13.5;100
45789;BME280;31492;54.856;26.318;2022-09-01T16:18:42;1002.1;;;13.3;100
45789;BME280;31492;54.856;26.318;2022-09-01T16:23:33;1002.1;;;13.3;100
45789;BME280;31492;54.856;26.318;2022-09-01T16:28:41;1002.1;;;13.2;100
45789;BME280;31492;54.856;26.318;2022-09-01T16:33:37;1002.2;;;13;100
45789;BME280;31492;54.856;26.318;2022-09-01T16:38:40;1002.3;;;12.9;100
45789;BME280;31492;54.856;26.318;2022-09-01T16:43:45;1002.4;;;12.8;100
45789;BME280;31492;54.856;26.318;2022-09-01T16:53:46;1002.4;;;12.6;100
45789;BME280;31492;54.856;26.318;2022-09-01T16:58:59;1002.4;;;12.5;100
45789;BME280;31492;54.856;26.318;2022-09-01T17:03:53;1002.4;;;12.3;100
45789;BME280;31492;54.856;26.318;2022-09-01T17:08:48;1002.4;;;12.2;100
45789;BME280;31492;54.856;26.318;2022-09-01T17:13:41;1002.4;;;12.1;100
45789;BME280;31492;54.856;26.318;2022-09-01T17:18:44;1002.5;;;12;100
45789;BME280;31492;54.856;26.318;2022-09-01T17:23:45;1002.6;;;12;100
45789;BME280;31492;54.856;26.318;2022-09-01T17:29:49;1002.6;;;11.9;100
45789;BME280;31492;54.856;26.318;2022-09-01T17:33:45;1002.7;;;11.8;100
45789;BME280;31492;54.856;26.318;2022-09-01T17:38:41;1002.7;;;11.8;100
45789;BME280;31492;54.856;26.318;2022-09-01T17:44:50;1002.7;;;11.7;100
45789;BME280;31492;54.856;26.318;2022-09-01T17:48:45;1002.8;;;11.5;100
45789;BME280;31492;54.856;26.318;2022-09-01T17:53:42;1002.9;;;11.5;100
45789;BME280;31492;54.856;26.318;2022-09-01T18:03:43;1003;;;11.2;100
45789;BME280;31492;54.856;26.318;2022-09-01T18:08:40;1003.1;;;11.1;100
45789;BME280;31492;54.856;26.318;2022-09-01T18:14:10;1003.1;;;11;100
45789;BME280;31492;54.856;26.318;2022-09-01T18:18:43;1003.1;;;10.9;100
45789;BME280;31492;54.856;26.318;2022-09-01T18:23:42;1003.1;;;10.9;100
45789;BME280;31492;54.856;26.318;2022-09-01T18:28:39;1003.2;;;11;100
45789;BME280;31492;54.856;26.318;2022-09-01T18:33:46;1003.2;;;10.9;100
45789;BME280;31492;54.856;26.318;2022-09-01T18:38:49;1003.2;;;10.7;100
45789;BME280;31492;54.856;26.318;2022-09-01T18:43:48;1003.3;;;10.6;100
45789;BME280;31492;54.856;26.318;2022-09-01T18:53:44;1003.2;;;10.4;100
45789;BME280;31492;54.856;26.318;2022-09-01T18:58:37;1003.3;;;10.3;100
45789;BME280;31492;54.856;26.318;2022-09-01T19:03:40;1003.3;;;10.3;100
45789;BME280;31492;54.856;26.318;2022-09-01T19:08:51;1003.3;;;10.2;100
45789;BME280;31492;54.856;26.318;2022-09-01T19:13:45;1003.3;;;10.1;100
45789;BME280;31492;54.856;26.318;2022-09-01T19:18:34;1003.4;;;10;100
45789;BME280;31492;54.856;26.318;2022-09-01T19:24:46;1003.4;;;10;100
45789;BME280;31492;54.856;26.318;2022-09-01T19:28:40;1003.4;;;10;100
45789;BME280;31492;54.856;26.318;2022-09-01T19:33:43;1003.4;;;10;100
45789;BME280;31492;54.856;26.318;2022-09-01T19:38:41;1003.5;;;9.9;100
45789;BME280;31492;54.856;26.318;2022-09-01T19:43:41;1003.5;;;9.8;100
45789;BME280;31492;54.856;26.318;2022-09-01T19:48:06;1003.6;;;9.8;100
45789;BME280;31492;54.856;26.318;2022-09-01T19:53:57;1003.6;;;9.7;100
45789;BME280;31492;54.856;26.318;2022-09-01T19:58:45;1003.6;;;9.6;100
45789;BME280;31492;54.856;26.318;2022-09-01T20:03:54;1003.6;;;9.5;100
45789;BME280;31492;54.856;26.318;2022-09-01T20:08:45;1003.6;;;9.4;100
45789;BME280;31492;54.856;26.318;2022-09-01T20:13:33;1003.6;;;9.3;100
45789;BME280;31492;54.856;26.318;2022-09-01T20:18:43;1003.7;;;9.2;100
45789;BME280;31492;54.856;26.318;2022-09-01T20:23:43;1003.7;;;9.2;100
45789;BME280;31492;54.856;26.318;2022-09-01T20:29:49;1003.7;;;9;100
45789;BME280;31492;54.856;26.318;2022-09-01T20:33:39;1003.8;;;8.9;100
45789;BME280;31492;54.856;26.318;2022-09-01T20:38:47;1003.8;;;8.8;100
45789;BME280;31492;54.856;26.318;2022-09-01T20:43:40;1003.9;;;8.8;100
45789;BME280;31492;54.856;26.318;2022-09-01T20:48:43;1004;;;8.8;100
45789;BME280;31492;54.856;26.318;2022-09-01T20:53:50;1004;;;8.7;100
45789;BME280;31492;54.856;26.318;2022-09-01T20:58:45;1004.1;;;8.6;100
45789;BME280;31492;54.856;26.318;2022-09-01T21:03:44;1004.1;;;8.5;100
45789;BME280;31492;54.856;26.318;2022-09-01T21:09:22;1004.1;;;8.5;100
45789;BME280;31492;54.856;26.318;2022-09-01T21:13:48;1004.1;;;8.4;100
45789;BME280;31492;54.856;26.318;2022-09-01T21:18:51;1004.2;;;8.4;100
45789;BME280;31492;54.856;26.318;2022-09-01T21:23:41;1004.2;;;8.3;100
45789;BME280;31492;54.856;26.318;2022-09-01T21:28:43;1004.3;;;8.2;100
45789;BME280;31492;54.856;26.318;2022-09-01T21:33:39;1004.2;;;8.2;100
45789;BME280;31492;54.856;26.318;2022-09-01T21:38:41;1004.3;;;8.2;100
45789;BME280;31492;54.856;26.318;2022-09-01T21:43:40;1004.3;;;8.1;100
45789;BME280;31492;54.856;26.318;2022-09-01T21:48:43;1004.3;;;8;100
45789;BME280;31492;54.856;26.318;2022-09-01T21:53:39;1004.4;;;8;100
45789;BME280;31492;54.856;26.318;2022-09-01T21:58:41;1004.4;;;8;100
45789;BME280;31492;54.856;26.318;2022-09-01T22:03:43;1004.5;;;7.8;100
45789;BME280;31492;54.856;26.318;2022-09-01T22:08:41;1004.5;;;7.8;100
45789;BME280;31492;54.856;26.318;2022-09-01T22:13:41;1004.5;;;7.7;100
45789;BME280;31492;54.856;26.318;2022-09-01T22:18:41;1004.5;;;7.6;100
45789;BME280;31492;54.856;26.318;2022-09-01T22:23:39;1004.6;;;7.6;100
45789;BME280;31492;54.856;26.318;2022-09-01T22:28:39;1004.6;;;7.6;100
45789;BME280;31492;54.856;26.318;2022-09-01T22:33:27;1004.6;;;7.6;100
45789;BME280;31492;54.856;26.318;2022-09-01T22:38:39;1004.5;;;7.5;100
45789;BME280;31492;54.856;26.318;2022-09-01T22:43:37;1004.5;;;7.5;100
